sensor_id;sensor_type;location;lat;lon;timestamp;pressure;altitude;pressure_sealevel;temperature;humidity
56292;BME280;54008;53.606;9.462;2022-11-20T00:01:08;101569.59;;;0.20;100.00
56292;BME280;54008;53.606;9.462;2022-11-20T00:03:34;101567.22;;;0.17;100.00
56292;BME280;54008;53.606;9.462;2022-11-20T00:06:05;101563.81;;;0.15;100.00
56292;BME280;54008;53.606;9.462;2022-11-20T00:08:31;101558.44;;;0.15;100.00
56292;BME280;54008;53.606;9.462;2022-11-20T00:10:56;101556.28;;;0.19;100.00
56292;BME280;54008;53.606;9.462;2022-11-20T00:13:22;101558.09;;;0.18;100.00
56292;BME280;54008;53.606;9.462;2022-11-20T00:15:47;101554.72;;;0.16;100.00
56292;BME280;54008;53.606;9.462;2022-11-20T00:18:12;101561.81;;;0.17;100.00
56292;BME280;54008;53.606;9.462;2022-11-20T00:20:37;101560.13;;;0.16;100.00
56292;BME280;54008;53.606;9.462;2022-11-20T00:23:03;101565.34;;;0.18;100.00
56292;BME280;54008;53.606;9.462;2022-11-20T00:25:28;101553.72;;;0.17;100.00
56292;BME280;54008;53.606;9.462;2022-11-20T00:27:53;101560.13;;;0.16;100.00
56292;BME280;54008;53.606;9.462;2022-11-20T00:30:18;101553.72;;;0.17;100.00
56292;BME280;54008;53.606;9.462;2022-11-20T00:32:44;101559.81;;;0.19;100.00
56292;BME280;54008;53.606;9.462;2022-11-20T00:35:09;101555.28;;;0.20;100.00
56292;BME280;54008;53.606;9.462;2022-11-20T00:37:35;101561.97;;;0.16;100.00
56292;BME280;54008;53.606;9.462;2022-11-20T00:40:00;101555.56;;;0.17;100.00
56292;BME280;54008;53.606;9.462;2022-11-20T00:42:25;101551.31;;;0.14;100.00
56292;BME280;54008;53.606;9.462;2022-11-20T00:44:50;101556.72;;;0.14;100.00
56292;BME280;54008;53.606;9.462;2022-11-20T00:47:16;101560.72;;;0.10;100.00
56292;BME280;54008;53.606;9.462;2022-11-20T00:49:41;101559.41;;;0.14;100.00
56292;BME280;54008;53.606;9.462;2022-11-20T00:52:06;101554.72;;;0.16;100.00
56292;BME280;54008;53.606;9.462;2022-11-20T00:54:31;101554.72;;;0.16;100.00
56292;BME280;54008;53.606;9.462;2022-11-20T00:56:57;101543.94;;;0.16;100.00
56292;BME280;54008;53.606;9.462;2022-11-20T00:59:22;101546.63;;;0.16;100.00
56292;BME280;54008;53.606;9.462;2022-11-20T01:01:47;101547.63;;;0.15;100.00
56292;BME280;54008;53.606;9.462;2022-11-20T01:04:13;101552.03;;;0.16;100.00
56292;BME280;54008;53.606;9.462;2022-11-20T01:06:39;101549.03;;;0.19;100.00
56292;BME280;54008;53.606;9.462;2022-11-20T01:09:13;101541.91;;;0.18;100.00
56292;BME280;54008;53.606;9.462;2022-11-20T01:11:41;101528.03;;;0.13;100.00
56292;BME280;54008;53.606;9.462;2022-11-20T01:14:09;101526.91;;;0.16;100.00
56292;BME280;54008;53.606;9.462;2022-11-20T01:16:41;101525.50;;;0.12;100.00
56292;BME280;54008;53.606;9.462;2022-11-20T01:19:13;101531.75;;;0.12;100.00
56292;BME280;54008;53.606;9.462;2022-11-20T01:21:41;101520.66;;;0.15;100.00
56292;BME280;54008;53.606;9.462;2022-11-20T01:24:11;101521.63;;;0.14;100.00
56292;BME280;54008;53.606;9.462;2022-11-20T01:26:38;101512.94;;;0.20;100.00
56292;BME280;54008;53.606;9.462;2022-11-20T01:29:05;101516.66;;;0.19;100.00
56292;BME280;54008;53.606;9.462;2022-11-20T01:31:32;101511.31;;;0.10;100.00
56292;BME280;54008;53.606;9.462;2022-11-20T01:34:01;101514.25;;;0.16;100.00
56292;BME280;54008;53.606;9.462;2022-11-20T01:36:29;101510.53;;;0.17;100.00
56292;BME280;54008;53.606;9.462;2022-11-20T01:38:56;101505.59;;;0.13;100.00
56292;BME280;54008;53.606;9.462;2022-11-20T01:41:23;101502.63;;;0.16;100.00
56292;BME280;54008;53.606;9.462;2022-11-20T01:44:07;101496.50;;;0.14;100.00
56292;BME280;54008;53.606;9.462;2022-11-20T01:46:36;101495.13;;;0.10;100.00
56292;BME280;54008;53.606;9.462;2022-11-20T01:49:24;101489.72;;;0.10;100.00
56292;BME280;54008;53.606;9.462;2022-11-20T01:54:24;101478.69;;;0.03;100.00
56292;BME280;54008;53.606;9.462;2022-11-20T01:56:53;101473.28;;;0.03;100.00
56292;BME280;54008;53.606;9.462;2022-11-20T01:59:22;101475.06;;;-0.06;100.00
56292;BME280;54008;53.606;9.462;2022-11-20T02:01:49;101472.53;;;-0.07;100.00
56292;BME280;54008;53.606;9.462;2022-11-20T02:04:15;101469.84;;;-0.07;100.00
56292;BME280;54008;53.606;9.462;2022-11-20T02:06:44;101471.66;;;-0.08;100.00
56292;BME280;54008;53.606;9.462;2022-11-20T02:09:12;101472.00;;;-0.11;100.00
56292;BME280;54008;53.606;9.462;2022-11-20T02:11:38;101463.13;;;-0.03;100.00
56292;BME280;54008;53.606;9.462;2022-11-20T02:14:04;101454.31;;;-0.05;100.00
56292;BME280;54008;53.606;9.462;2022-11-20T02:16:34;101447.53;;;-0.09;100.00
56292;BME280;54008;53.606;9.462;2022-11-20T02:19:02;101456.03;;;-0.04;100.00
56292;BME280;54008;53.606;9.462;2022-11-20T02:21:37;101454.63;;;-0.08;100.00
56292;BME280;54008;53.606;9.462;2022-11-20T02:24:14;101456.19;;;-0.06;100.00
56292;BME280;54008;53.606;9.462;2022-11-20T02:27:02;101442.88;;;-0.07;100.00
56292;BME280;54008;53.606;9.462;2022-11-20T02:30:00;101440.47;;;-0.10;100.00
56292;BME280;54008;53.606;9.462;2022-11-20T02:32:31;101445.16;;;-0.12;100.00
56292;BME280;54008;53.606;9.462;2022-11-20T02:35:06;101441.00;;;-0.07;100.00
56292;BME280;54008;53.606;9.462;2022-11-20T02:37:34;101436.47;;;-0.06;100.00
56292;BME280;54008;53.606;9.462;2022-11-20T02:40:01;101436.16;;;-0.03;100.00
56292;BME280;54008;53.606;9.462;2022-11-20T02:42:27;101441.25;;;0.00;100.00
56292;BME280;54008;53.606;9.462;2022-11-20T02:44:52;101437.13;;;-0.04;100.00
56292;BME280;54008;53.606;9.462;2022-11-20T02:47:17;101433.84;;;0.02;100.00
56292;BME280;54008;53.606;9.462;2022-11-20T02:49:42;101426.22;;;-0.03;100.00
56292;BME280;54008;53.606;9.462;2022-11-20T02:52:08;101429.59;;;-0.01;100.00
56292;BME280;54008;53.606;9.462;2022-11-20T02:54:33;101431.59;;;-0.03;100.00
56292;BME280;54008;53.606;9.462;2022-11-20T02:56:58;101431.69;;;0.06;100.00
56292;BME280;54008;53.606;9.462;2022-11-20T02:59:23;101432.16;;;0.01;100.00
56292;BME280;54008;53.606;9.462;2022-11-20T03:01:48;101416.09;;;-0.01;100.00
56292;BME280;54008;53.606;9.462;2022-11-20T03:04:14;101424.06;;;0.01;100.00
56292;BME280;54008;53.606;9.462;2022-11-20T03:06:39;101419.97;;;-0.03;100.00
56292;BME280;54008;53.606;9.462;2022-11-20T03:09:04;101419.44;;;-0.07;100.00
56292;BME280;54008;53.606;9.462;2022-11-20T03:11:30;101415.19;;;-0.09;100.00
56292;BME280;54008;53.606;9.462;2022-11-20T03:13:55;101418.03;;;-0.11;100.00
56292;BME280;54008;53.606;9.462;2022-11-20T03:16:21;101402.41;;;-0.07;100.00
56292;BME280;54008;53.606;9.462;2022-11-20T03:18:47;101400.94;;;-0.02;100.00
56292;BME280;54008;53.606;9.462;2022-11-20T03:21:14;101394.22;;;0.03;100.00
56292;BME280;54008;53.606;9.462;2022-11-20T03:23:40;101397.75;;;0.03;100.00
56292;BME280;54008;53.606;9.462;2022-11-20T03:26:17;101394.38;;;0.01;100.00
56292;BME280;54008;53.606;9.462;2022-11-20T03:28:57;101401.53;;;-0.08;100.00
56292;BME280;54008;53.606;9.462;2022-11-20T03:31:28;101395.28;;;-0.08;100.00
56292;BME280;54008;53.606;9.462;2022-11-20T03:33:55;101385.59;;;-0.01;100.00
56292;BME280;54008;53.606;9.462;2022-11-20T03:36:21;101390.91;;;-0.09;100.00
56292;BME280;54008;53.606;9.462;2022-11-20T03:38:47;101386.91;;;-0.05;100.00
56292;BME280;54008;53.606;9.462;2022-11-20T03:41:18;101391.63;;;-0.07;100.00
56292;BME280;54008;53.606;9.462;2022-11-20T03:43:50;101391.50;;;-0.15;100.00
56292;BME280;54008;53.606;9.462;2022-11-20T03:46:15;101380.13;;;-0.09;100.00
56292;BME280;54008;53.606;9.462;2022-11-20T03:48:41;101377.44;;;-0.09;100.00
56292;BME280;54008;53.606;9.462;2022-11-20T03:51:12;101370.03;;;-0.07;100.00
56292;BME280;54008;53.606;9.462;2022-11-20T03:53:38;101371.41;;;-0.03;100.00
56292;BME280;54008;53.606;9.462;2022-11-20T03:56:04;101376.50;;;0.00;100.00
56292;BME280;54008;53.606;9.462;2022-11-20T03:58:30;101373.09;;;-0.02;100.00
56292;BME280;54008;53.606;9.462;2022-11-20T04:00:55;101371.13;;;0.00;100.00
56292;BME280;54008;53.606;9.462;2022-11-20T04:03:20;101373.28;;;-0.04;100.00
56292;BME280;54008;53.606;9.462;2022-11-20T04:05:45;101368.56;;;-0.02;100.00
56292;BME280;54008;53.606;9.462;2022-11-20T04:08:11;101362.09;;;-0.09;100.00
56292;BME280;54008;53.606;9.462;2022-11-20T04:10:36;101370.56;;;-0.04;100.00
56292;BME280;54008;53.606;9.462;2022-11-20T04:13:01;101363.94;;;-0.09;100.00
56292;BME280;54008;53.606;9.462;2022-11-20T04:15:26;101369.63;;;-0.12;100.00
56292;BME280;54008;53.606;9.462;2022-11-20T04:17:53;101360.78;;;-0.05;100.00
56292;BME280;54008;53.606;9.462;2022-11-20T04:20:18;101355.53;;;-0.06;100.00
56292;BME280;54008;53.606;9.462;2022-11-20T04:22:44;101355.84;;;-0.09;100.00
56292;BME280;54008;53.606;9.462;2022-11-20T04:25:10;101361.84;;;0.03;100.00
56292;BME280;54008;53.606;9.462;2022-11-20T04:27:35;101366.34;;;-0.06;100.00
56292;BME280;54008;53.606;9.462;2022-11-20T04:30:00;101352.13;;;-0.08;100.00
56292;BME280;54008;53.606;9.462;2022-11-20T04:32:25;101360.63;;;-0.03;100.00
56292;BME280;54008;53.606;9.462;2022-11-20T04:34:51;101349.53;;;0.00;100.00
56292;BME280;54008;53.606;9.462;2022-11-20T04:37:16;101357.47;;;0.02;100.00
56292;BME280;54008;53.606;9.462;2022-11-20T04:39:42;101354.59;;;0.03;100.00
56292;BME280;54008;53.606;9.462;2022-11-20T04:42:08;101355.00;;;0.08;100.00
56292;BME280;54008;53.606;9.462;2022-11-20T04:44:52;101350.59;;;0.07;100.00
56292;BME280;54008;53.606;9.462;2022-11-20T04:47:18;101346.19;;;0.06;100.00
56292;BME280;54008;53.606;9.462;2022-11-20T04:49:43;101346.69;;;0.02;100.00
56292;BME280;54008;53.606;9.462;2022-11-20T04:52:08;101349.84;;;-0.03;100.00
56292;BME280;54008;53.606;9.462;2022-11-20T04:54:33;101341.03;;;-0.05;100.00
56292;BME280;54008;53.606;9.462;2022-11-20T04:56:58;101345.59;;;-0.06;100.00
56292;BME280;54008;53.606;9.462;2022-11-20T04:59:24;101337.34;;;-0.04;100.00
56292;BME280;54008;53.606;9.462;2022-11-20T05:01:49;101336.72;;;0.02;100.00
56292;BME280;54008;53.606;9.462;2022-11-20T05:04:14;101330.50;;;0.02;100.00
56292;BME280;54008;53.606;9.462;2022-11-20T05:06:39;101333.09;;;0.11;100.00
56292;BME280;54008;53.606;9.462;2022-11-20T05:09:05;101333.00;;;0.03;100.00
56292;BME280;54008;53.606;9.462;2022-11-20T05:11:31;101338.88;;;-0.02;100.00
56292;BME280;54008;53.606;9.462;2022-11-20T05:13:58;101333.00;;;0.03;100.00
56292;BME280;54008;53.606;9.462;2022-11-20T05:16:24;101332.97;;;-0.05;100.00
56292;BME280;54008;53.606;9.462;2022-11-20T05:18:52;101325.25;;;0.00;100.00
56292;BME280;54008;53.606;9.462;2022-11-20T05:21:18;101327.97;;;0.00;100.00
56292;BME280;54008;53.606;9.462;2022-11-20T05:23:44;101321.06;;;0.06;100.00
56292;BME280;54008;53.606;9.462;2022-11-20T05:26:16;101322.94;;;0.05;100.00
56292;BME280;54008;53.606;9.462;2022-11-20T05:28:42;101314.47;;;0.00;100.00
56292;BME280;54008;53.606;9.462;2022-11-20T05:31:09;101314.00;;;0.05;100.00
56292;BME280;54008;53.606;9.462;2022-11-20T05:33:35;101314.78;;;-0.03;100.00
56292;BME280;54008;53.606;9.462;2022-11-20T05:36:03;101310.38;;;-0.04;100.00
56292;BME280;54008;53.606;9.462;2022-11-20T05:38:28;101304.66;;;-0.01;100.00
56292;BME280;54008;53.606;9.462;2022-11-20T05:40:54;101299.50;;;0.06;100.00
56292;BME280;54008;53.606;9.462;2022-11-20T05:43:19;101295.25;;;0.03;100.00
56292;BME280;54008;53.606;9.462;2022-11-20T05:45:52;101294.94;;;0.06;100.00
56292;BME280;54008;53.606;9.462;2022-11-20T05:48:17;101295.13;;;0.05;100.00
56292;BME280;54008;53.606;9.462;2022-11-20T05:50:43;101295.47;;;0.10;100.00
56292;BME280;54008;53.606;9.462;2022-11-20T05:53:08;101296.25;;;0.02;100.00
56292;BME280;54008;53.606;9.462;2022-11-20T05:55:33;101289.31;;;-0.01;100.00
56292;BME280;54008;53.606;9.462;2022-11-20T05:57:58;101292.56;;;0.03;100.00
56292;BME280;54008;53.606;9.462;2022-11-20T06:00:24;101281.22;;;-0.01;100.00
56292;BME280;54008;53.606;9.462;2022-11-20T06:02:49;101286.25;;;-0.06;100.00
56292;BME280;54008;53.606;9.462;2022-11-20T06:05:14;101283.41;;;-0.04;100.00
56292;BME280;54008;53.606;9.462;2022-11-20T06:07:39;101288.47;;;-0.01;100.00
56292;BME280;54008;53.606;9.462;2022-11-20T06:10:05;101282.94;;;0.01;100.00
56292;BME280;54008;53.606;9.462;2022-11-20T06:12:31;101286.44;;;-0.07;100.00
56292;BME280;54008;53.606;9.462;2022-11-20T06:14:58;101282.31;;;-0.11;100.00
56292;BME280;54008;53.606;9.462;2022-11-20T06:17:23;101281.47;;;-0.12;100.00
56292;BME280;54008;53.606;9.462;2022-11-20T06:19:48;101281.19;;;-0.09;100.00
56292;BME280;54008;53.606;9.462;2022-11-20T06:22:13;101283.72;;;-0.07;100.00
56292;BME280;54008;53.606;9.462;2022-11-20T06:24:38;101274.78;;;-0.08;100.00
56292;BME280;54008;53.606;9.462;2022-11-20T06:27:04;101281.19;;;-0.09;100.00
56292;BME280;54008;53.606;9.462;2022-11-20T06:29:29;101278.66;;;-0.10;100.00
56292;BME280;54008;53.606;9.462;2022-11-20T06:31:54;101278.00;;;-0.04;100.00
56292;BME280;54008;53.606;9.462;2022-11-20T06:34:19;101272.94;;;-0.07;100.00
56292;BME280;54008;53.606;9.462;2022-11-20T06:36:45;101265.31;;;-0.12;100.00
56292;BME280;54008;53.606;9.462;2022-11-20T06:39:10;101260.44;;;-0.08;100.00
56292;BME280;54008;53.606;9.462;2022-11-20T06:41:35;101261.09;;;-0.14;100.00
56292;BME280;54008;53.606;9.462;2022-11-20T06:44:01;101258.41;;;-0.14;100.00
56292;BME280;54008;53.606;9.462;2022-11-20T06:46:26;101253.13;;;-0.16;100.00
56292;BME280;54008;53.606;9.462;2022-11-20T06:48:51;101247.91;;;-0.17;100.00
56292;BME280;54008;53.606;9.462;2022-11-20T06:51:17;101255.69;;;-0.14;100.00
56292;BME280;54008;53.606;9.462;2022-11-20T06:53:42;101246.97;;;-0.08;100.00
56292;BME280;54008;53.606;9.462;2022-11-20T06:56:08;101251.69;;;-0.10;100.00
56292;BME280;54008;53.606;9.462;2022-11-20T06:58:34;101254.75;;;-0.05;100.00
56292;BME280;54008;53.606;9.462;2022-11-20T07:01:02;101253.06;;;-0.06;100.00
56292;BME280;54008;53.606;9.462;2022-11-20T07:03:27;101253.84;;;-0.14;100.00
56292;BME280;54008;53.606;9.462;2022-11-20T07:05:57;101258.69;;;-0.17;100.00
56292;BME280;54008;53.606;9.462;2022-11-20T07:08:22;101266.16;;;-0.11;100.00
56292;BME280;54008;53.606;9.462;2022-11-20T07:10:48;101255.03;;;-0.08;100.00
56292;BME280;54008;53.606;9.462;2022-11-20T07:13:13;101248.34;;;-0.04;100.00
56292;BME280;54008;53.606;9.462;2022-11-20T07:15:39;101257.06;;;-0.10;100.00
56292;BME280;54008;53.606;9.462;2022-11-20T07:18:04;101264.75;;;-0.15;100.00
56292;BME280;54008;53.606;9.462;2022-11-20T07:20:29;101258.22;;;-0.13;100.00
56292;BME280;54008;53.606;9.462;2022-11-20T07:22:55;101259.47;;;-0.07;100.00
56292;BME280;54008;53.606;9.462;2022-11-20T07:25:22;101268.47;;;-0.16;100.00
56292;BME280;54008;53.606;9.462;2022-11-20T07:27:48;101276.50;;;-0.25;100.00
56292;BME280;54008;53.606;9.462;2022-11-20T07:30:14;101272.50;;;-0.20;100.00
56292;BME280;54008;53.606;9.462;2022-11-20T07:32:39;101276.03;;;-0.20;100.00
56292;BME280;54008;53.606;9.462;2022-11-20T07:35:05;101267.56;;;-0.25;100.00
56292;BME280;54008;53.606;9.462;2022-11-20T07:37:33;101271.06;;;-0.33;100.00
56292;BME280;54008;53.606;9.462;2022-11-20T07:39:59;101276.38;;;-0.41;100.00
56292;BME280;54008;53.606;9.462;2022-11-20T07:42:24;101269.13;;;-0.40;100.00
56292;BME280;54008;53.606;9.462;2022-11-20T07:44:49;101263.56;;;-0.39;100.00
56292;BME280;54008;53.606;9.462;2022-11-20T07:47:14;101271.88;;;-0.32;100.00
56292;BME280;54008;53.606;9.462;2022-11-20T07:49:40;101268.47;;;-0.16;100.00
56292;BME280;54008;53.606;9.462;2022-11-20T07:52:05;101272.50;;;-0.20;100.00
56292;BME280;54008;53.606;9.462;2022-11-20T07:54:30;101268.16;;;-0.13;100.00
56292;BME280;54008;53.606;9.462;2022-11-20T07:56:55;101268.69;;;-0.10;100.00
56292;BME280;54008;53.606;9.462;2022-11-20T07:59:21;101262.78;;;-0.13;100.00
56292;BME280;54008;53.606;9.462;2022-11-20T08:01:46;101267.16;;;-0.12;100.00
56292;BME280;54008;53.606;9.462;2022-11-20T08:04:11;101266.16;;;-0.11;100.00
56292;BME280;54008;53.606;9.462;2022-11-20T08:06:36;101259.78;;;-0.10;100.00
56292;BME280;54008;53.606;9.462;2022-11-20T08:09:02;101255.28;;;-0.02;100.00
56292;BME280;54008;53.606;9.462;2022-11-20T08:11:28;101253.91;;;-0.06;100.00
56292;BME280;54008;53.606;9.462;2022-11-20T08:14:11;101251.91;;;-0.04;100.00
56292;BME280;54008;53.606;9.462;2022-11-20T08:16:41;101257.28;;;-0.04;100.00
56292;BME280;54008;53.606;9.462;2022-11-20T08:19:07;101252.94;;;0.04;100.00
56292;BME280;54008;53.606;9.462;2022-11-20T08:21:32;101258.81;;;-0.01;100.00
56292;BME280;54008;53.606;9.462;2022-11-20T08:23:58;101255.75;;;-0.06;100.00
56292;BME280;54008;53.606;9.462;2022-11-20T08:26:24;101260.56;;;-0.18;100.00
56292;BME280;54008;53.606;9.462;2022-11-20T08:28:53;101262.00;;;-0.23;100.00
56292;BME280;54008;53.606;9.462;2022-11-20T08:31:19;101260.31;;;-0.07;100.00
56292;BME280;54008;53.606;9.462;2022-11-20T08:33:44;101263.84;;;-0.06;100.00
56292;BME280;54008;53.606;9.462;2022-11-20T08:36:09;101272.53;;;-0.12;100.00
56292;BME280;54008;53.606;9.462;2022-11-20T08:38:35;101264.47;;;-0.12;100.00
56292;BME280;54008;53.606;9.462;2022-11-20T08:41:02;101270.69;;;-0.12;100.00
56292;BME280;54008;53.606;9.462;2022-11-20T08:43:46;101280.94;;;-0.15;100.00
56292;BME280;54008;53.606;9.462;2022-11-20T08:46:12;101283.88;;;-0.27;100.00
56292;BME280;54008;53.606;9.462;2022-11-20T08:48:37;101282.38;;;-0.29;100.00
56292;BME280;54008;53.606;9.462;2022-11-20T08:51:02;101285.59;;;-0.26;100.00
56292;BME280;54008;53.606;9.462;2022-11-20T08:53:28;101292.59;;;-0.15;100.00
56292;BME280;54008;53.606;9.462;2022-11-20T08:55:53;101295.66;;;-0.10;100.00
56292;BME280;54008;53.606;9.462;2022-11-20T08:58:18;101290.69;;;0.04;100.00
56292;BME280;54008;53.606;9.462;2022-11-20T09:00:44;101293.25;;;0.05;100.00
56292;BME280;54008;53.606;9.462;2022-11-20T09:03:09;101297.34;;;0.09;100.00
56292;BME280;54008;53.606;9.462;2022-11-20T09:05:34;101300.41;;;0.14;100.00
56292;BME280;54008;53.606;9.462;2022-11-20T09:08:00;101296.06;;;0.21;100.00
56292;BME280;54008;53.606;9.462;2022-11-20T09:10:26;101296.50;;;0.35;100.00
56292;BME280;54008;53.606;9.462;2022-11-20T09:12:52;101295.75;;;0.51;100.00
56292;BME280;54008;53.606;9.462;2022-11-20T09:15:18;101296.00;;;0.65;100.00
56292;BME280;54008;53.606;9.462;2022-11-20T09:18:03;101303.06;;;0.66;100.00
56292;BME280;54008;53.606;9.462;2022-11-20T09:20:30;101299.00;;;0.62;100.00
56292;BME280;54008;53.606;9.462;2022-11-20T09:22:56;101305.19;;;0.81;100.00
56292;BME280;54008;53.606;9.462;2022-11-20T09:25:22;101311.56;;;0.71;100.00
56292;BME280;54008;53.606;9.462;2022-11-20T09:27:47;101313.59;;;0.78;100.00
56292;BME280;54008;53.606;9.462;2022-11-20T09:30:14;101314.31;;;0.80;100.00
56292;BME280;54008;53.606;9.462;2022-11-20T09:32:39;101321.75;;;0.86;100.00
56292;BME280;54008;53.606;9.462;2022-11-20T09:35:05;101330.25;;;0.99;100.00
56292;BME280;54008;53.606;9.462;2022-11-20T09:37:30;101332.41;;;0.87;100.00
56292;BME280;54008;53.606;9.462;2022-11-20T09:39:55;101339.38;;;0.98;100.00
56292;BME280;54008;53.606;9.462;2022-11-20T09:42:43;101346.66;;;1.06;100.00
56292;BME280;54008;53.606;9.462;2022-11-20T09:51:07;101365.50;;;1.24;100.00
56292;BME280;54008;53.606;9.462;2022-11-20T09:56:43;101375.50;;;1.39;100.00
56292;BME280;54008;53.606;9.462;2022-11-20T10:01:54;101393.56;;;1.31;100.00
56292;BME280;54008;53.606;9.462;2022-11-20T10:04:20;101395.91;;;1.26;100.00
56292;BME280;54008;53.606;9.462;2022-11-20T10:06:53;101398.25;;;1.20;100.00
56292;BME280;54008;53.606;9.462;2022-11-20T10:09:27;101408.63;;;1.07;100.00
56292;BME280;54008;53.606;9.462;2022-11-20T10:17:34;101407.47;;;1.10;100.00
56292;BME280;54008;53.606;9.462;2022-11-20T10:25:15;101398.44;;;1.27;100.00
56292;BME280;54008;53.606;9.462;2022-11-20T10:28:10;101384.16;;;1.43;100.00
56292;BME280;54008;53.606;9.462;2022-11-20T10:30:44;101383.84;;;1.62;100.00
56292;BME280;54008;53.606;9.462;2022-11-20T10:33:16;101387.78;;;1.76;100.00
56292;BME280;54008;53.606;9.462;2022-11-20T10:38:24;101397.00;;;1.49;100.00
56292;BME280;54008;53.606;9.462;2022-11-20T10:40:57;101399.22;;;1.54;100.00
56292;BME280;54008;53.606;9.462;2022-11-20T10:43:44;101414.53;;;1.37;100.00
56292;BME280;54008;53.606;9.462;2022-11-20T10:46:18;101413.19;;;1.41;100.00
56292;BME280;54008;53.606;9.462;2022-11-20T10:48:46;101402.88;;;1.36;100.00
56292;BME280;54008;53.606;9.462;2022-11-20T10:51:25;101394.22;;;1.33;100.00
56292;BME280;54008;53.606;9.462;2022-11-20T10:54:37;101396.94;;;1.33;100.00
56292;BME280;54008;53.606;9.462;2022-11-20T10:57:20;101391.19;;;1.28;100.00
56292;BME280;54008;53.606;9.462;2022-11-20T11:00:21;101393.38;;;1.24;100.00
56292;BME280;54008;53.606;9.462;2022-11-20T11:02:51;101397.44;;;1.28;100.00
56292;BME280;54008;53.606;9.462;2022-11-20T11:07:46;101385.34;;;1.49;100.00
56292;BME280;54008;53.606;9.462;2022-11-20T11:10:24;101386.38;;;1.56;100.00
56292;BME280;54008;53.606;9.462;2022-11-20T11:12:52;101380.44;;;1.52;100.00
56292;BME280;54008;53.606;9.462;2022-11-20T11:15:28;101379.78;;;1.58;100.00
56292;BME280;54008;53.606;9.462;2022-11-20T11:17:54;101386.56;;;1.62;100.00
56292;BME280;54008;53.606;9.462;2022-11-20T11:20:21;101376.91;;;1.60;100.00
56292;BME280;54008;53.606;9.462;2022-11-20T11:22:49;101387.22;;;1.56;100.00
56292;BME280;54008;53.606;9.462;2022-11-20T11:27:49;101385.81;;;1.36;100.00
56292;BME280;54008;53.606;9.462;2022-11-20T11:30:16;101383.44;;;1.41;100.00
56292;BME280;54008;53.606;9.462;2022-11-20T11:32:42;101380.06;;;1.39;100.00
56292;BME280;54008;53.606;9.462;2022-11-20T11:35:25;101385.09;;;1.26;100.00
56292;BME280;54008;53.606;9.462;2022-11-20T11:37:54;101386.41;;;1.21;100.00
56292;BME280;54008;53.606;9.462;2022-11-20T11:40:21;101383.38;;;1.16;100.00
56292;BME280;54008;53.606;9.462;2022-11-20T11:42:52;101381.72;;;1.24;100.00
56292;BME280;54008;53.606;9.462;2022-11-20T11:45:19;101373.00;;;1.46;100.00
56292;BME280;54008;53.606;9.462;2022-11-20T11:47:48;101368.66;;;1.61;100.00
56292;BME280;54008;53.606;9.462;2022-11-20T11:50:17;101367.97;;;1.59;100.00
56292;BME280;54008;53.606;9.462;2022-11-20T11:52:50;101371.38;;;1.78;100.00
56292;BME280;54008;53.606;9.462;2022-11-20T12:01:17;101388.94;;;1.57;100.00
56292;BME280;54008;53.606;9.462;2022-11-20T12:06:43;101385.72;;;1.62;100.00
56292;BME280;54008;53.606;9.462;2022-11-20T12:09:10;101383.56;;;1.82;100.00
56292;BME280;54008;53.606;9.462;2022-11-20T12:14:37;101388.13;;;1.98;100.00
56292;BME280;54008;53.606;9.462;2022-11-20T12:17:03;101387.47;;;2.12;100.00
56292;BME280;54008;53.606;9.462;2022-11-20T12:19:34;101384.28;;;2.33;100.00
56292;BME280;54008;53.606;9.462;2022-11-20T12:24:50;101391.03;;;2.53;100.00
56292;BME280;54008;53.606;9.462;2022-11-20T12:30:12;101409.16;;;2.45;100.00
56292;BME280;54008;53.606;9.462;2022-11-20T12:33:08;101425.75;;;2.58;100.00
56292;BME280;54008;53.606;9.462;2022-11-20T12:35:48;101420.13;;;2.67;100.00
56292;BME280;54008;53.606;9.462;2022-11-20T12:44:29;101438.44;;;2.33;100.00
56292;BME280;54008;53.606;9.462;2022-11-20T12:50:37;101423.47;;;1.80;100.00
56292;BME280;54008;53.606;9.462;2022-11-20T12:53:23;101410.91;;;1.62;100.00
56292;BME280;54008;53.606;9.462;2022-11-20T12:59:04;101396.53;;;1.54;100.00
56292;BME280;54008;53.606;9.462;2022-11-20T13:01:45;101398.00;;;1.48;100.00
56292;BME280;54008;53.606;9.462;2022-11-20T13:06:46;101394.88;;;1.27;100.00
56292;BME280;54008;53.606;9.462;2022-11-20T13:09:15;101381.22;;;1.28;100.00
56292;BME280;54008;53.606;9.462;2022-11-20T13:12:15;101374.59;;;1.23;100.00
56292;BME280;54008;53.606;9.462;2022-11-20T13:14:52;101364.63;;;1.23;100.00
56292;BME280;54008;53.606;9.462;2022-11-20T13:17:27;101366.97;;;1.18;100.00
56292;BME280;54008;53.606;9.462;2022-11-20T13:19:56;101363.78;;;1.23;100.00
56292;BME280;54008;53.606;9.462;2022-11-20T13:22:46;101365.16;;;1.27;100.00
56292;BME280;54008;53.606;9.462;2022-11-20T13:25:22;101370.19;;;1.21;100.00
56292;BME280;54008;53.606;9.462;2022-11-20T13:27:48;101355.72;;;1.31;100.00
56292;BME280;54008;53.606;9.462;2022-11-20T13:30:16;101352.53;;;1.43;100.00
56292;BME280;54008;53.606;9.462;2022-11-20T13:32:51;101337.19;;;1.52;100.00
56292;BME280;54008;53.606;9.462;2022-11-20T13:35:29;101343.09;;;1.56;100.00
56292;BME280;54008;53.606;9.462;2022-11-20T13:38:04;101338.22;;;1.59;100.00
56292;BME280;54008;53.606;9.462;2022-11-20T13:40:30;101331.47;;;1.72;100.00
56292;BME280;54008;53.606;9.462;2022-11-20T13:43:16;101335.56;;;1.76;100.00
56292;BME280;54008;53.606;9.462;2022-11-20T13:45:54;101334.00;;;1.73;100.00
56292;BME280;54008;53.606;9.462;2022-11-20T13:48:22;101344.31;;;1.69;100.00
56292;BME280;54008;53.606;9.462;2022-11-20T13:51:29;101341.81;;;1.84;100.00
56292;BME280;54008;53.606;9.462;2022-11-20T13:54:14;101342.31;;;1.88;100.00
56292;BME280;54008;53.606;9.462;2022-11-20T13:57:16;101351.47;;;1.87;100.00
56292;BME280;54008;53.606;9.462;2022-11-20T14:00:10;101355.16;;;1.94;100.00